Time;durP1;ratioP1;P1;durP2;ratioP2;P2;SDS_P1;SDS_P2;PMS_P1;PMS_P2;Temp;Humidity;BMP_temperature;BMP_pressure;BME280_temperature;BME280_humidity;BME280_pressure;Samples;Min_cycle;Max_cycle;Signal;HPM_P1;HPM_P2
2020/12/23 00:01:29;;;;;;;6.83;3.30;;;14.30;99.90;;;;;;5028100;28;20178;-78
2020/12/23 00:03:56;;;;;;;6.17;3.03;;;14.30;99.90;;;;;;5027480;28;20205;-79
2020/12/23 00:06:33;;;;;;;8.17;3.00;;;14.30;99.90;;;;;;5030467;28;20203;-78
2020/12/23 00:08:59;;;;;;;8.63;3.47;;;14.20;99.90;;;;;;5033102;28;20193;-78
2020/12/23 00:11:24;;;;;;;7.97;3.10;;;14.30;99.90;;;;;;5028366;28;20244;-79
2020/12/23 00:13:50;;;;;;;8.73;3.17;;;14.30;99.90;;;;;;5048291;28;20655;-78
2020/12/23 00:16:16;;;;;;;7.87;3.20;;;14.30;99.90;;;;;;5032221;28;20238;-78
2020/12/23 00:18:41;;;;;;;6.53;2.60;;;14.20;99.90;;;;;;5030186;28;20197;-78
2020/12/23 00:21:08;;;;;;;7.67;2.93;;;14.20;99.90;;;;;;5034135;28;20197;-78
2020/12/23 00:23:35;;;;;;;7.97;3.30;;;14.20;99.90;;;;;;5015993;28;20213;-78
2020/12/23 00:26:00;;;;;;;7.30;3.07;;;14.20;99.90;;;;;;5030122;28;20200;-79
2020/12/23 00:28:26;;;;;;;10.00;3.53;;;14.30;99.90;;;;;;5032926;28;20190;-78
2020/12/23 00:30:51;;;;;;;8.80;3.80;;;14.30;99.90;;;;;;5034297;28;20197;-78
2020/12/23 00:33:17;;;;;;;9.33;4.03;;;14.20;99.90;;;;;;5034846;28;20625;-79
2020/12/23 00:35:43;;;;;;;8.80;4.20;;;14.30;99.90;;;;;;5030494;28;20685;-78
2020/12/23 00:38:08;;;;;;;9.83;4.33;;;14.30;99.90;;;;;;5047316;28;20657;-78
2020/12/23 00:40:34;;;;;;;12.70;4.90;;;14.30;99.90;;;;;;5034521;28;20551;-79
2020/12/23 00:43:00;;;;;;;9.63;5.20;;;14.30;99.90;;;;;;5034299;28;20174;-78
2020/12/23 00:45:25;;;;;;;11.80;5.90;;;14.30;99.90;;;;;;5033078;28;20589;-78
2020/12/23 00:47:51;;;;;;;9.53;5.40;;;14.30;99.90;;;;;;5029775;28;20189;-79
2020/12/23 00:50:17;;;;;;;14.30;5.57;;;14.30;99.90;;;;;;5038663;28;20238;-79
2020/12/23 00:52:42;;;;;;;12.27;6.53;;;14.30;99.90;;;;;;5030132;28;20526;-78
2020/12/23 00:55:09;;;;;;;9.60;5.80;;;14.30;99.90;;;;;;5029885;28;20289;-79
2020/12/23 00:57:38;;;;;;;12.03;6.60;;;14.40;99.90;;;;;;5038982;28;20184;-78
2020/12/23 01:00:05;;;;;;;11.03;6.27;;;14.40;99.90;;;;;;5033310;28;20187;-78
2020/12/23 01:02:31;;;;;;;11.43;6.80;;;14.40;99.90;;;;;;5043398;28;20543;-78
2020/12/23 01:04:57;;;;;;;11.00;7.33;;;14.40;99.90;;;;;;5026599;28;20194;-79
2020/12/23 01:07:22;;;;;;;10.83;6.90;;;14.40;99.90;;;;;;5010342;28;20269;-78
2020/12/23 01:09:48;;;;;;;12.33;6.60;;;14.30;99.90;;;;;;5047777;28;20249;-78
2020/12/23 01:12:14;;;;;;;12.40;6.47;;;14.20;99.90;;;;;;5033563;28;20190;-78
2020/12/23 01:14:39;;;;;;;11.10;6.50;;;14.30;99.90;;;;;;5019350;28;20182;-78
2020/12/23 01:17:05;;;;;;;11.27;6.23;;;14.30;99.90;;;;;;5027887;28;20177;-78
2020/12/23 01:19:30;;;;;;;12.23;5.70;;;14.40;99.90;;;;;;5033326;28;20373;-78
2020/12/23 01:21:56;;;;;;;11.37;5.57;;;14.30;99.90;;;;;;5033017;28;20193;-78
2020/12/23 01:24:22;;;;;;;12.97;5.97;;;14.30;99.90;;;;;;5029942;28;20186;-78
2020/12/23 01:26:48;;;;;;;10.97;5.40;;;14.20;99.90;;;;;;5021089;28;20235;-77
2020/12/23 01:29:14;;;;;;;13.13;6.40;;;14.20;99.90;;;;;;5026878;28;20191;-78
2020/12/23 01:31:43;;;;;;;12.93;6.60;;;14.30;99.90;;;;;;5032498;28;20185;-78
2020/12/23 01:34:09;;;;;;;11.60;6.73;;;14.20;99.90;;;;;;5047639;28;20194;-78
2020/12/23 01:36:35;;;;;;;11.43;6.53;;;14.10;99.90;;;;;;5029663;28;20218;-77
2020/12/23 01:39:00;;;;;;;11.73;7.00;;;14.10;99.90;;;;;;5027601;28;20568;-78
2020/12/23 01:41:26;;;;;;;12.13;7.40;;;14.10;99.90;;;;;;5030729;28;20218;-78
2020/12/23 01:43:57;;;;;;;13.20;7.40;;;14.20;99.90;;;;;;5032959;28;20519;-77
2020/12/23 01:46:30;;;;;;;12.10;7.00;;;14.10;99.90;;;;;;5028718;28;20186;-78
2020/12/23 01:48:57;;;;;;;16.03;7.50;;;14.20;99.90;;;;;;5043479;28;20189;-77
2020/12/23 01:51:24;;;;;;;15.30;7.57;;;14.30;99.90;;;;;;5026605;28;20200;-78
2020/12/23 01:53:51;;;;;;;17.80;7.67;;;14.30;99.90;;;;;;5042837;28;20539;-78
2020/12/23 01:56:20;;;;;;;15.93;7.67;;;14.30;99.90;;;;;;5033128;28;20209;-78
2020/12/23 01:58:49;;;;;;;16.00;7.10;;;14.30;99.90;;;;;;5023682;28;20204;-78
2020/12/23 02:01:21;;;;;;;15.40;7.60;;;14.30;99.90;;;;;;5027526;28;20187;-78
2020/12/23 02:03:49;;;;;;;17.30;7.27;;;14.30;99.90;;;;;;5029425;28;20211;-78
2020/12/23 02:06:15;;;;;;;15.17;6.93;;;14.30;99.90;;;;;;5016918;28;20234;-78
2020/12/23 02:08:42;;;;;;;13.97;5.97;;;14.30;99.90;;;;;;5031730;28;20173;-77
2020/12/23 02:11:13;;;;;;;14.77;6.67;;;14.30;99.90;;;;;;5029504;28;20595;-78
2020/12/23 02:13:46;;;;;;;14.97;5.63;;;14.40;99.90;;;;;;5031434;28;20808;-77
2020/12/23 02:16:13;;;;;;;12.10;5.27;;;14.40;99.90;;;;;;5043337;28;20203;-77
2020/12/23 02:18:39;;;;;;;14.40;4.97;;;14.50;99.90;;;;;;5033146;28;20267;-78
2020/12/23 02:21:05;;;;;;;13.33;4.97;;;14.50;99.90;;;;;;5030622;28;20162;-77
2020/12/23 02:23:31;;;;;;;13.70;4.33;;;14.50;99.90;;;;;;5030348;28;20187;-77
2020/12/23 02:25:57;;;;;;;12.33;4.90;;;14.50;99.90;;;;;;5026370;28;20246;-78
2020/12/23 02:28:22;;;;;;;15.10;4.63;;;14.60;99.90;;;;;;5025827;28;20802;-77
2020/12/23 02:30:58;;;;;;;13.23;5.20;;;14.50;99.90;;;;;;5030461;28;20225;-77
2020/12/23 02:33:24;;;;;;;17.87;6.03;;;14.50;99.90;;;;;;5027167;28;20186;-77
2020/12/23 02:35:49;;;;;;;17.67;5.87;;;14.60;99.90;;;;;;5026060;28;20228;-78
2020/12/23 02:38:15;;;;;;;19.07;7.20;;;14.60;99.90;;;;;;5022875;28;20534;-77
2020/12/23 02:40:41;;;;;;;17.10;6.77;;;14.50;99.90;;;;;;5029145;28;20252;-77
2020/12/23 02:43:06;;;;;;;17.80;7.10;;;14.60;99.90;;;;;;5025752;28;20194;-77
2020/12/23 02:45:32;;;;;;;19.77;7.80;;;14.50;99.90;;;;;;5027080;28;20199;-77
2020/12/23 02:47:58;;;;;;;24.10;9.03;;;14.50;99.90;;;;;;5045431;28;20221;-77
2020/12/23 02:50:23;;;;;;;23.40;8.30;;;14.30;99.90;;;;;;5021033;28;20233;-78
2020/12/23 02:52:49;;;;;;;23.73;8.63;;;14.20;99.90;;;;;;5013645;28;20177;-77
2020/12/23 02:55:15;;;;;;;23.50;8.80;;;14.20;99.90;;;;;;5029280;28;20603;-77
2020/12/23 02:57:40;;;;;;;19.33;8.33;;;14.20;99.90;;;;;;5032202;28;20197;-78
2020/12/23 03:00:06;;;;;;;19.53;7.60;;;14.30;99.90;;;;;;5028767;28;20202;-78
2020/12/23 03:02:32;;;;;;;20.03;8.57;;;14.30;99.90;;;;;;5024855;28;20187;-78
2020/12/23 03:04:57;;;;;;;19.97;7.67;;;14.20;99.90;;;;;;5025932;28;20193;-78
2020/12/23 03:07:23;;;;;;;15.30;6.63;;;14.30;99.90;;;;;;5030303;28;20202;-77
2020/12/23 03:09:49;;;;;;;12.70;5.33;;;14.20;99.90;;;;;;5042908;28;20202;-77
2020/12/23 03:12:14;;;;;;;12.07;4.47;;;14.20;99.90;;;;;;5031431;28;20263;-77
2020/12/23 03:14:40;;;;;;;8.30;2.70;;;14.20;99.90;;;;;;5025291;28;20262;-78
2020/12/23 03:17:06;;;;;;;7.17;2.50;;;14.10;99.90;;;;;;5025045;28;20185;-78
2020/12/23 03:19:31;;;;;;;4.30;1.47;;;14.10;99.90;;;;;;5028666;28;20185;-77
2020/12/23 03:21:57;;;;;;;5.00;1.43;;;14.10;99.90;;;;;;5045588;28;20184;-77
2020/12/23 03:24:23;;;;;;;2.83;0.80;;;14.10;99.90;;;;;;5030978;28;20185;-77
2020/12/23 03:26:48;;;;;;;4.17;1.10;;;14.10;99.90;;;;;;5029840;28;20212;-77
2020/12/23 03:29:14;;;;;;;1.90;0.83;;;14.20;99.90;;;;;;5045576;28;20259;-77
2020/12/23 03:31:40;;;;;;;3.23;0.73;;;14.10;99.90;;;;;;5027636;28;20181;-77
2020/12/23 03:34:06;;;;;;;2.00;0.50;;;14.20;99.90;;;;;;5043824;28;20201;-77
2020/12/23 03:36:32;;;;;;;1.97;0.50;;;14.30;99.90;;;;;;5028024;28;20213;-77
2020/12/23 03:38:58;;;;;;;1.90;0.60;;;14.40;99.90;;;;;;5023465;28;20233;-76
2020/12/23 03:41:24;;;;;;;2.27;0.50;;;14.30;99.90;;;;;;5033852;28;20640;-77
2020/12/23 03:43:49;;;;;;;4.33;0.50;;;14.40;99.90;;;;;;5031836;28;20658;-77
2020/12/23 03:46:15;;;;;;;1.73;0.50;;;14.30;99.90;;;;;;5033011;28;20628;-77
2020/12/23 03:48:41;;;;;;;2.07;0.60;;;14.20;99.90;;;;;;5032746;28;20727;-78
2020/12/23 03:51:06;;;;;;;1.60;0.70;;;14.10;99.90;;;;;;5031021;28;20222;-78
2020/12/23 03:53:32;;;;;;;2.80;0.97;;;14.00;99.90;;;;;;5033954;28;20204;-77
2020/12/23 03:55:58;;;;;;;1.53;0.70;;;14.00;99.90;;;;;;5030228;28;20265;-78
2020/12/23 03:58:23;;;;;;;2.40;1.00;;;13.90;99.90;;;;;;5050499;28;20176;-77
2020/12/23 04:00:49;;;;;;;1.87;0.87;;;13.90;99.90;;;;;;5047532;28;20206;-77
2020/12/23 04:03:15;;;;;;;3.07;0.90;;;14.00;99.90;;;;;;5030216;28;20189;-78
2020/12/23 04:05:40;;;;;;;4.43;1.30;;;14.00;99.90;;;;;;5031157;28;20181;-78
2020/12/23 04:08:06;;;;;;;4.63;1.30;;;14.10;99.90;;;;;;5029797;28;20562;-77
2020/12/23 04:10:33;;;;;;;4.17;1.23;;;14.10;99.90;;;;;;5033818;28;20181;-77
2020/12/23 04:12:59;;;;;;;4.40;1.40;;;14.20;99.90;;;;;;5050544;28;20192;-78
2020/12/23 04:15:25;;;;;;;3.37;1.27;;;14.20;99.90;;;;;;5030727;28;20484;-77
2020/12/23 04:17:51;;;;;;;6.90;1.50;;;14.20;99.90;;;;;;5033541;28;20184;-78
2020/12/23 04:20:17;;;;;;;6.10;1.70;;;14.20;99.90;;;;;;5032867;28;20243;-78
2020/12/23 04:22:43;;;;;;;5.47;1.70;;;14.30;99.90;;;;;;5049578;28;20178;-77
2020/12/23 04:25:09;;;;;;;6.10;1.50;;;14.20;99.90;;;;;;5027898;28;20537;-77
2020/12/23 04:27:35;;;;;;;5.90;2.00;;;14.20;99.90;;;;;;5028435;28;20236;-77
2020/12/23 04:30:01;;;;;;;7.20;1.90;;;14.10;99.90;;;;;;5030663;28;20664;-78
2020/12/23 04:32:27;;;;;;;6.40;2.00;;;13.90;99.90;;;;;;5032551;28;20225;-77
2020/12/23 04:34:53;;;;;;;7.37;2.23;;;13.80;99.90;;;;;;5024226;28;20561;-77
2020/12/23 04:37:19;;;;;;;6.77;2.17;;;13.80;99.90;;;;;;5031334;28;20659;-77
2020/12/23 04:39:45;;;;;;;5.70;1.97;;;13.80;99.90;;;;;;5032359;28;20224;-77
2020/12/23 04:42:11;;;;;;;7.87;2.20;;;13.70;99.90;;;;;;5023800;28;20551;-77
2020/12/23 04:44:36;;;;;;;7.10;2.20;;;13.50;99.90;;;;;;5022813;28;20225;-78
2020/12/23 04:47:04;;;;;;;6.97;2.30;;;13.50;99.90;;;;;;5031868;28;20850;-79
2020/12/23 04:49:36;;;;;;;9.50;2.73;;;13.60;99.90;;;;;;5043804;28;20263;-78
2020/12/23 04:52:06;;;;;;;6.70;2.17;;;13.70;99.90;;;;;;5026726;28;20190;-78
2020/12/23 04:54:33;;;;;;;8.53;2.50;;;13.70;99.90;;;;;;5033539;28;20543;-78
2020/12/23 04:56:59;;;;;;;5.90;2.20;;;13.80;99.90;;;;;;5032354;28;20272;-78
2020/12/23 04:59:26;;;;;;;6.77;2.23;;;13.80;99.90;;;;;;5022327;28;20189;-78
2020/12/23 05:01:52;;;;;;;6.90;2.53;;;13.90;99.90;;;;;;5028375;28;20304;-78
2020/12/23 05:04:18;;;;;;;7.43;2.50;;;13.90;99.90;;;;;;5032746;28;20265;-78
2020/12/23 05:06:43;;;;;;;7.57;2.60;;;14.00;99.90;;;;;;5029815;28;20189;-78
2020/12/23 05:09:09;;;;;;;8.03;2.50;;;14.00;99.90;;;;;;5031739;28;20185;-78
2020/12/23 05:11:35;;;;;;;8.07;2.13;;;14.10;99.90;;;;;;5024553;28;20272;-78
2020/12/23 05:14:05;;;;;;;6.33;2.20;;;14.10;99.90;;;;;;5029074;28;20216;-78
2020/12/23 05:16:32;;;;;;;7.30;2.33;;;14.10;99.90;;;;;;5022478;28;20204;-78
2020/12/23 05:18:59;;;;;;;6.93;2.50;;;14.20;99.90;;;;;;5023042;28;20272;-78
2020/12/23 05:21:26;;;;;;;6.27;2.30;;;14.10;99.90;;;;;;5033131;28;20219;-78
2020/12/23 05:23:52;;;;;;;6.33;2.50;;;14.10;99.90;;;;;;5033818;28;20272;-78
2020/12/23 05:26:21;;;;;;;9.27;2.87;;;14.20;99.90;;;;;;5028366;28;20220;-79
2020/12/23 05:28:47;;;;;;;9.27;2.83;;;14.20;99.90;;;;;;5046369;28;20197;-78
2020/12/23 05:31:14;;;;;;;7.30;2.70;;;14.20;99.90;;;;;;5026601;28;20273;-78
2020/12/23 05:33:43;;;;;;;8.77;3.03;;;14.30;99.90;;;;;;5047753;28;20187;-77
2020/12/23 05:36:12;;;;;;;7.00;2.77;;;14.40;99.90;;;;;;5044886;28;20219;-78
2020/12/23 05:38:38;;;;;;;10.13;3.33;;;14.40;99.90;;;;;;5047300;28;20175;-77
2020/12/23 05:41:09;;;;;;;7.77;3.00;;;14.40;99.90;;;;;;5031268;28;20237;-77
2020/12/23 05:43:35;;;;;;;8.23;3.37;;;14.40;99.90;;;;;;5026656;28;20190;-78
2020/12/23 05:46:03;;;;;;;10.13;3.57;;;14.40;99.90;;;;;;5030371;28;20179;-77
2020/12/23 05:48:31;;;;;;;9.13;3.43;;;14.50;99.90;;;;;;5029262;28;20237;-77
2020/12/23 05:50:57;;;;;;;7.83;3.13;;;14.50;99.90;;;;;;5028250;28;20256;-77
2020/12/23 05:53:27;;;;;;;9.67;3.00;;;14.50;99.90;;;;;;5030540;28;20188;-77
2020/12/23 05:55:53;;;;;;;9.17;3.20;;;14.40;99.90;;;;;;5028707;28;20636;-77
2020/12/23 05:58:27;;;;;;;7.87;2.83;;;14.40;99.90;;;;;;5032795;28;20187;-77
2020/12/23 06:00:54;;;;;;;8.30;2.67;;;14.40;99.90;;;;;;5029349;28;20174;-77
2020/12/23 06:03:43;;;;;;;7.70;2.90;;;14.30;99.90;;;;;;5030805;28;20206;-77
2020/12/23 06:06:11;;;;;;;9.63;2.60;;;14.50;99.90;;;;;;5040037;28;20187;-78
2020/12/23 06:08:39;;;;;;;6.40;2.70;;;14.40;99.90;;;;;;5025324;28;20660;-79
2020/12/23 06:11:23;;;;;;;8.17;2.30;;;14.40;99.90;;;;;;5030785;28;20526;-80
2020/12/23 06:14:11;;;;;;;5.07;2.13;;;14.20;99.90;;;;;;5026050;28;20243;-78
2020/12/23 06:16:43;;;;;;;6.23;1.87;;;14.20;99.90;;;;;;5030934;28;20297;-76
2020/12/23 06:19:30;;;;;;;6.83;1.80;;;14.10;99.90;;;;;;5026516;28;20190;-79
2020/12/23 06:21:59;;;;;;;4.27;1.57;;;14.00;99.90;;;;;;5019017;28;20237;-79
2020/12/23 06:24:26;;;;;;;5.80;2.20;;;14.00;99.90;;;;;;5024842;28;20183;-79
2020/12/23 06:26:55;;;;;;;6.90;1.70;;;14.00;99.90;;;;;;5029649;28;20186;-79
2020/12/23 06:29:33;;;;;;;4.40;1.57;;;14.00;99.90;;;;;;5031007;28;20185;-79
2020/12/23 06:32:04;;;;;;;5.43;1.50;;;14.00;99.90;;;;;;5023960;28;20204;-79
2020/12/23 06:34:34;;;;;;;5.07;1.40;;;14.10;99.90;;;;;;5024478;28;20185;-79
2020/12/23 06:37:13;;;;;;;3.37;1.43;;;14.10;99.90;;;;;;5032269;28;20258;-80
2020/12/23 06:39:40;;;;;;;5.87;1.67;;;14.10;99.90;;;;;;5025213;28;20206;-79
2020/12/23 06:42:06;;;;;;;3.53;1.50;;;14.20;99.90;;;;;;5033242;28;20204;-79
2020/12/23 06:44:56;;;;;;;3.67;1.50;;;14.20;99.90;;;;;;5031325;28;20607;-80
2020/12/23 06:47:23;;;;;;;5.23;1.90;;;14.20;99.90;;;;;;5026594;28;20209;-79
2020/12/23 06:49:50;;;;;;;5.77;1.80;;;14.20;99.90;;;;;;5006519;28;594291;-79
2020/12/23 06:52:22;;;;;;;4.40;2.00;;;14.30;99.90;;;;;;5029108;28;20181;-79
2020/12/23 06:55:01;;;;;;;5.33;2.17;;;14.30;99.90;;;;;;5029593;28;20183;-79
2020/12/23 06:57:36;;;;;;;6.80;2.20;;;14.30;99.90;;;;;;5026091;28;20218;-78
2020/12/23 07:00:01;;;;;;;5.53;2.17;;;14.30;99.90;;;;;;5029691;28;20251;-79
2020/12/23 07:02:27;;;;;;;6.00;2.23;;;14.30;99.90;;;;;;5027290;28;20201;-79
2020/12/23 07:04:56;;;;;;;8.37;2.30;;;14.30;99.90;;;;;;5029850;28;20202;-78
2020/12/23 07:07:34;;;;;;;6.60;2.13;;;14.40;99.90;;;;;;5019715;28;20267;-78
2020/12/23 07:10:12;;;;;;;6.27;2.00;;;14.50;99.90;;;;;;5027854;28;20178;-79
2020/12/23 07:12:43;;;;;;;3.47;1.47;;;14.30;99.90;;;;;;5042241;28;20195;-79
2020/12/23 07:15:10;;;;;;;4.40;1.50;;;14.30;99.90;;;;;;5030552;28;20202;-79
2020/12/23 07:17:40;;;;;;;3.67;1.90;;;14.20;99.90;;;;;;5027467;28;20192;-84
2020/12/23 07:20:07;;;;;;;5.40;2.13;;;14.10;99.90;;;;;;5030028;28;20182;-79
2020/12/23 07:22:34;;;;;;;3.00;1.43;;;14.20;99.90;;;;;;5027241;28;20661;-79
2020/12/23 07:25:00;;;;;;;6.30;2.17;;;14.30;99.90;;;;;;5028272;28;20683;-79
2020/12/23 07:27:27;;;;;;;12.60;5.77;;;14.30;99.90;;;;;;5008556;28;20194;-79
2020/12/23 07:30:08;;;;;;;7.77;2.70;;;14.30;99.90;;;;;;5022546;28;20193;-79
2020/12/23 07:32:34;;;;;;;5.13;2.20;;;14.30;99.90;;;;;;5043666;28;20185;-79
2020/12/23 07:35:03;;;;;;;6.23;2.37;;;14.30;99.90;;;;;;5027921;28;20233;-79
2020/12/23 07:37:40;;;;;;;5.77;2.60;;;14.20;99.90;;;;;;5025253;28;20194;-79
2020/12/23 07:40:16;;;;;;;5.10;2.20;;;14.20;99.90;;;;;;5026239;28;20188;-79
2020/12/23 07:42:49;;;;;;;5.97;2.30;;;14.10;99.90;;;;;;5021941;28;20198;-79
2020/12/23 07:45:15;;;;;;;3.47;2.00;;;14.10;99.90;;;;;;5025457;28;20271;-79
2020/12/23 07:47:53;;;;;;;5.77;1.70;;;14.10;99.90;;;;;;5040968;28;20182;-79
2020/12/23 07:50:18;;;;;;;3.27;1.40;;;14.10;99.90;;;;;;5024097;28;20307;-79
2020/12/23 07:52:44;;;;;;;2.37;1.50;;;14.10;99.90;;;;;;5027683;28;20347;-79
2020/12/23 07:55:17;;;;;;;3.60;1.30;;;14.20;99.90;;;;;;5026360;28;20212;-79
2020/12/23 07:57:43;;;;;;;2.43;1.20;;;14.10;99.90;;;;;;5043776;28;20180;-78
2020/12/23 08:00:12;;;;;;;4.00;1.50;;;14.20;99.90;;;;;;5026608;28;20200;-79
2020/12/23 08:02:38;;;;;;;3.13;1.50;;;14.10;99.90;;;;;;5025114;28;20181;-79
2020/12/23 08:05:05;;;;;;;2.50;1.30;;;14.10;99.90;;;;;;5027081;28;20182;-78
2020/12/23 08:07:31;;;;;;;2.00;1.10;;;14.10;99.90;;;;;;5026765;28;20666;-81
2020/12/23 08:10:06;;;;;;;3.57;1.47;;;14.20;99.90;;;;;;5043279;28;20186;-80
2020/12/23 08:12:33;;;;;;;3.50;1.40;;;14.30;99.90;;;;;;5039406;28;20183;-80
2020/12/23 08:14:58;;;;;;;3.60;1.20;;;14.20;99.90;;;;;;5042148;28;20668;-80
2020/12/23 08:17:24;;;;;;;5.07;1.57;;;14.10;99.90;;;;;;5027925;28;20215;-81
2020/12/23 08:20:04;;;;;;;3.63;1.00;;;14.00;99.90;;;;;;5022971;28;20210;-81
2020/12/23 08:22:30;;;;;;;4.47;0.93;;;14.00;99.90;;;;;;5023984;28;20206;-80
2020/12/23 08:25:01;;;;;;;2.43;0.80;;;14.00;99.90;;;;;;5027442;28;20193;-80
2020/12/23 08:27:28;;;;;;;2.53;0.90;;;14.00;99.90;;;;;;5018482;28;20181;-81
2020/12/23 08:29:54;;;;;;;4.30;0.80;;;14.00;99.90;;;;;;5033152;28;20737;-80
2020/12/23 08:32:24;;;;;;;1.97;1.10;;;14.10;99.90;;;;;;5031615;28;20234;-80
2020/12/23 08:34:52;;;;;;;2.80;0.80;;;14.10;99.90;;;;;;5030699;28;20269;-80
2020/12/23 08:37:22;;;;;;;3.20;0.80;;;14.20;99.90;;;;;;5031304;28;20651;-81
2020/12/23 08:39:58;;;;;;;2.70;0.90;;;14.10;99.90;;;;;;5029639;28;20186;-80
2020/12/23 08:42:25;;;;;;;3.57;1.43;;;14.20;99.90;;;;;;5030509;28;20606;-80
2020/12/23 08:44:54;;;;;;;2.40;0.80;;;14.20;99.90;;;;;;5030328;28;20649;-79
2020/12/23 08:47:29;;;;;;;3.23;1.07;;;14.30;99.90;;;;;;5030184;28;20239;-79
2020/12/23 08:49:55;;;;;;;1.30;0.60;;;14.30;99.90;;;;;;5027436;28;20226;-79
2020/12/23 08:52:23;;;;;;;1.80;0.70;;;14.30;99.90;;;;;;5025456;28;20208;-79
2020/12/23 08:54:49;;;;;;;3.17;0.77;;;14.30;99.90;;;;;;5029134;28;20212;-79
2020/12/23 08:57:24;;;;;;;1.93;0.70;;;14.20;99.90;;;;;;5032049;28;20201;-79
2020/12/23 08:59:50;;;;;;;2.27;0.60;;;14.20;99.90;;;;;;5027850;28;20229;-80
2020/12/23 09:02:17;;;;;;;1.20;0.70;;;14.20;99.90;;;;;;5032025;28;20262;-79
2020/12/23 09:04:43;;;;;;;1.57;0.80;;;14.40;99.90;;;;;;5013864;28;20187;-79
2020/12/23 09:07:09;;;;;;;2.00;0.60;;;14.30;99.90;;;;;;5033123;28;20225;-79
2020/12/23 09:09:35;;;;;;;2.17;0.83;;;14.30;99.90;;;;;;5031276;28;20279;-79
2020/12/23 09:12:04;;;;;;;3.97;0.70;;;14.30;99.90;;;;;;5033788;28;20186;-79
2020/12/23 09:14:38;;;;;;;2.30;0.80;;;14.30;99.90;;;;;;5027185;28;20178;-80
2020/12/23 09:17:18;;;;;;;2.40;0.70;;;14.20;99.90;;;;;;5010540;28;20213;-80
2020/12/23 09:19:46;;;;;;;2.10;0.90;;;14.10;99.90;;;;;;5031784;28;20178;-80
2020/12/23 09:22:33;;;;;;;2.87;0.93;;;14.10;99.90;;;;;;5030850;28;20190;-80
2020/12/23 09:25:13;;;;;;;1.93;0.80;;;14.10;99.90;;;;;;5028652;28;20201;-80
2020/12/23 09:27:39;;;;;;;1.57;0.60;;;14.10;99.90;;;;;;5031992;28;20304;-79
2020/12/23 09:30:06;;;;;;;1.70;0.70;;;14.10;99.90;;;;;;5031812;28;20194;-79
2020/12/23 09:32:32;;;;;;;1.60;0.80;;;14.20;99.90;;;;;;5029188;28;20644;-80
2020/12/23 09:35:22;;;;;;;2.10;0.90;;;14.20;99.90;;;;;;5030303;28;20679;-80
2020/12/23 09:37:48;;;;;;;4.20;0.90;;;14.30;99.90;;;;;;5030936;28;20197;-80
2020/12/23 09:40:15;;;;;;;3.73;0.90;;;14.20;99.90;;;;;;5027675;28;20557;-80
2020/12/23 09:42:40;;;;;;;4.00;0.97;;;14.20;99.90;;;;;;5033193;28;20214;-80
2020/12/23 09:45:08;;;;;;;2.27;0.90;;;14.30;99.90;;;;;;5030214;28;20309;-80
2020/12/23 09:47:34;;;;;;;2.80;0.80;;;14.20;99.90;;;;;;5028153;28;20229;-80
2020/12/23 09:50:03;;;;;;;2.10;0.90;;;14.20;99.90;;;;;;5029071;28;20243;-80
2020/12/23 09:52:29;;;;;;;4.00;1.07;;;14.20;99.90;;;;;;5030446;28;20184;-80
2020/12/23 09:54:54;;;;;;;2.80;0.93;;;14.20;99.90;;;;;;5024487;28;20201;-80
2020/12/23 09:57:20;;;;;;;4.40;1.03;;;14.30;99.90;;;;;;5031043;28;20205;-80
2020/12/23 09:59:46;;;;;;;5.93;1.10;;;14.30;99.90;;;;;;5032478;28;20636;-80
2020/12/23 10:02:12;;;;;;;4.33;1.00;;;14.20;99.90;;;;;;5026214;28;20273;-80
2020/12/23 10:04:37;;;;;;;5.20;1.30;;;14.20;99.90;;;;;;5024785;28;20527;-82
2020/12/23 10:07:03;;;;;;;4.40;1.40;;;14.20;99.90;;;;;;5030373;28;20217;-80
2020/12/23 10:09:29;;;;;;;5.73;1.40;;;14.30;99.90;;;;;;5027367;28;20212;-80
2020/12/23 10:11:54;;;;;;;4.40;1.40;;;14.50;99.90;;;;;;5027993;28;20276;-77
2020/12/23 10:14:20;;;;;;;3.27;1.30;;;14.50;99.90;;;;;;5026220;28;20201;-76
2020/12/23 10:16:46;;;;;;;3.03;1.10;;;14.30;99.90;;;;;;5041430;28;20235;-78
2020/12/23 10:19:12;;;;;;;4.93;1.30;;;14.30;99.90;;;;;;5007125;28;20296;-77
2020/12/23 10:21:37;;;;;;;4.33;1.33;;;14.30;99.90;;;;;;5027349;28;20184;-77
2020/12/23 10:24:03;;;;;;;4.30;1.50;;;14.20;99.90;;;;;;5025446;28;20646;-77
2020/12/23 10:26:28;;;;;;;4.50;1.50;;;14.20;99.90;;;;;;5027412;28;20301;-77
2020/12/23 10:28:54;;;;;;;5.30;1.83;;;14.20;99.90;;;;;;5029178;28;20327;-77
2020/12/23 10:31:20;;;;;;;4.53;1.77;;;14.30;99.90;;;;;;5030831;28;20215;-79
2020/12/23 10:33:45;;;;;;;4.90;1.63;;;14.40;99.90;;;;;;5025553;28;20184;-78
2020/12/23 10:36:16;;;;;;;5.63;1.90;;;14.40;99.90;;;;;;5028161;28;20248;-77
2020/12/23 10:38:43;;;;;;;6.87;1.60;;;14.50;99.90;;;;;;5028147;28;20182;-78
2020/12/23 10:41:09;;;;;;;7.20;1.33;;;14.60;99.90;;;;;;5025212;28;20306;-78
2020/12/23 10:43:35;;;;;;;3.57;1.30;;;14.60;99.90;;;;;;5042202;28;20284;-78
2020/12/23 10:46:01;;;;;;;4.43;1.30;;;14.60;99.90;;;;;;5026134;28;20197;-77
2020/12/23 10:48:27;;;;;;;3.13;1.20;;;14.70;99.90;;;;;;5014618;28;20186;-77
2020/12/23 10:50:52;;;;;;;4.27;1.50;;;14.70;99.90;;;;;;5043787;28;20593;-77
2020/12/23 10:53:18;;;;;;;5.27;1.60;;;14.80;99.90;;;;;;5025434;28;20213;-78
2020/12/23 10:55:44;;;;;;;3.83;1.37;;;14.70;99.90;;;;;;5027028;28;20215;-78
2020/12/23 10:58:09;;;;;;;4.37;1.60;;;14.60;99.90;;;;;;5042834;28;20189;-78
2020/12/23 11:00:35;;;;;;;4.73;1.67;;;14.60;99.90;;;;;;5030417;28;20196;-80
2020/12/23 11:03:01;;;;;;;5.03;1.70;;;14.70;99.90;;;;;;5028340;28;20270;-77
2020/12/23 11:05:26;;;;;;;6.03;1.63;;;14.70;99.90;;;;;;5030814;28;20257;-77
2020/12/23 11:07:53;;;;;;;4.63;1.40;;;14.50;99.90;;;;;;5047133;28;20182;-79
2020/12/23 11:10:20;;;;;;;3.33;1.20;;;14.50;99.90;;;;;;5031922;28;20943;-79
2020/12/23 11:12:46;;;;;;;4.50;1.40;;;14.50;99.90;;;;;;5039613;28;20182;-79
2020/12/23 11:15:12;;;;;;;4.13;1.33;;;14.40;99.90;;;;;;5028482;28;20662;-79
2020/12/23 11:17:38;;;;;;;4.47;1.20;;;14.40;99.90;;;;;;5029940;28;20546;-78
2020/12/23 11:20:04;;;;;;;2.87;1.30;;;14.30;99.90;;;;;;5030454;28;20179;-79
2020/12/23 11:22:30;;;;;;;6.33;2.10;;;14.40;99.90;;;;;;5030511;28;20180;-79
2020/12/23 11:24:55;;;;;;;6.33;1.77;;;14.40;99.90;;;;;;5021513;28;20320;-79
2020/12/23 11:27:21;;;;;;;17.00;4.73;;;14.30;99.90;;;;;;5028870;28;20194;-78
2020/12/23 11:29:47;;;;;;;17.03;6.07;;;14.20;99.90;;;;;;5030642;28;20266;-79
2020/12/23 11:32:13;;;;;;;8.60;3.07;;;13.90;99.90;;;;;;5023686;28;20192;-79
2020/12/23 11:34:39;;;;;;;17.20;5.20;;;13.80;99.90;;;;;;5042619;28;20190;-78
2020/12/23 11:37:06;;;;;;;11.93;3.53;;;13.70;99.90;;;;;;5030100;28;20201;-78
2020/12/23 11:39:32;;;;;;;7.47;2.87;;;13.70;99.90;;;;;;5021427;28;20668;-78
2020/12/23 11:42:00;;;;;;;7.87;2.60;;;13.80;99.90;;;;;;5029540;28;20182;-78
2020/12/23 11:44:26;;;;;;;8.63;2.60;;;13.90;99.90;;;;;;5027513;28;20653;-78
2020/12/23 11:46:52;;;;;;;9.33;2.80;;;14.00;99.90;;;;;;5028127;28;20189;-78
2020/12/23 11:49:18;;;;;;;5.37;2.00;;;14.10;99.90;;;;;;5025845;28;20237;-78
2020/12/23 11:51:50;;;;;;;6.97;2.23;;;14.10;99.90;;;;;;5029177;28;20195;-79
2020/12/23 11:54:16;;;;;;;6.63;2.17;;;14.00;99.90;;;;;;5045150;28;20189;-79
2020/12/23 11:56:45;;;;;;;8.97;2.30;;;13.80;99.90;;;;;;5025822;28;20209;-79
2020/12/23 11:59:11;;;;;;;5.77;1.80;;;13.70;99.90;;;;;;5029325;28;20204;-80
2020/12/23 12:01:37;;;;;;;7.23;2.33;;;13.80;99.90;;;;;;5022203;28;20216;-81
2020/12/23 12:04:02;;;;;;;4.87;2.10;;;13.70;99.90;;;;;;5029873;28;20223;-80
2020/12/23 12:06:28;;;;;;;9.50;2.40;;;13.70;99.90;;;;;;5019054;28;20212;-80
2020/12/23 12:08:54;;;;;;;9.17;2.30;;;13.80;99.90;;;;;;5032888;28;20212;-79
2020/12/23 12:11:20;;;;;;;6.10;2.20;;;13.90;99.90;;;;;;5032359;28;20807;-80
2020/12/23 12:13:45;;;;;;;5.97;2.40;;;13.90;99.90;;;;;;5035012;28;20181;-81
2020/12/23 12:16:11;;;;;;;6.03;2.17;;;13.90;99.90;;;;;;5040173;28;20213;-80
2020/12/23 12:18:37;;;;;;;5.27;1.60;;;14.00;99.90;;;;;;5027226;28;20212;-80
2020/12/23 12:21:03;;;;;;;2.57;1.20;;;14.00;99.90;;;;;;5038920;28;20201;-80
2020/12/23 12:23:28;;;;;;;4.37;1.23;;;13.90;99.90;;;;;;5033286;28;20192;-80
2020/12/23 12:25:54;;;;;;;3.93;1.23;;;13.90;99.90;;;;;;5032195;28;20226;-80
2020/12/23 12:28:20;;;;;;;4.87;1.60;;;13.80;99.90;;;;;;5030442;28;20228;-80
2020/12/23 12:30:45;;;;;;;4.60;1.33;;;13.80;99.90;;;;;;5031603;28;20193;-80
2020/12/23 12:33:15;;;;;;;3.60;1.17;;;13.80;99.90;;;;;;5044024;28;20186;-80
2020/12/23 12:35:42;;;;;;;4.50;1.10;;;13.90;99.90;;;;;;5047562;28;20251;-79
2020/12/23 12:38:08;;;;;;;5.87;1.20;;;13.90;99.90;;;;;;5047485;28;20228;-80
2020/12/23 12:40:34;;;;;;;2.63;1.03;;;13.90;99.90;;;;;;5032936;28;20323;-79
2020/12/23 12:43:03;;;;;;;2.83;1.20;;;14.00;99.90;;;;;;5043328;28;20181;-80
2020/12/23 12:45:32;;;;;;;2.53;1.03;;;14.10;99.90;;;;;;5030823;28;20186;-80
2020/12/23 12:47:58;;;;;;;5.80;1.10;;;14.20;99.90;;;;;;5034614;28;20683;-79